首页
METAR-TAF:

METAR-TAF

机场 :

印第安纳波利斯国际机场

印第安納波利斯, 印第安纳州, 美国

纬度: 39-43-30N, 经度: 086-16-55W, 海拔: 243米

当前天气观测

该预报发布于1小时和4分钟前的03:54 UTC
风速7节,风向南转西南
温度 2°C
湿度 100%
气压 1011 hPa
能見度: 11.3公里
阴天层高于600英尺
小雨

METAR: KIND 250354Z 21007KT 7SM -RA OVC006 02/02 A2986 RMK AO2 RAE10B48 SLP115 P0000 T00220017

时间: 23:58 (04:58 UTC)

预报

该预报发布于1小时和4分钟前的03:54 UTC
预报有效从25日的 04点(UTC)到 26日的 06点(UTC)
风速6节,风向西转西南
能見度: 10公里
多云层高于800英尺
阴天层高于1800英尺
小雨
从 25日的 1000点(UTC)
风速8节,风向西转西南
能見度: 10公里
阴天层高于600英尺
附近有阵雨
从 25日的 1800点(UTC)
风速13节,风向西转西南
能見度: 10公里
阴天层高于700英尺
小雪, 雨
从 26日的 0200点(UTC)
风速11节,风向西
能見度: 10公里
阴天层高于1000英尺

TAF: KIND 250354Z 2504/2606 24006KT P6SM -RA BKN008 OVC018 FM251000 24008KT P6SM VCSH OVC006 FM251800 24013KT P6SM -SNRA OVC007 FM260200 26011KT P6SM OVC010

超过4000个机场的气象观测和天气预报(METAR&TAF报告)。

可查询的气象台以黄色和红色小点在地图上表示。

将鼠标移到小点上方,可查看气象台名称。

然后点击查看天气观测和预报。

如需切换地图:点击带黑十字的绿色按钮放大地图;点击带横线的绿色按钮缩小地图;或者点击绿色箭头查看邻近地区的地图。


METAR-TAF: